Time;durP1;ratioP1;P1;durP2;ratioP2;P2;SDS_P1;SDS_P2;PMS_P1;PMS_P2;Temp;Humidity;BMP_temperature;BMP_pressure;BME280_temperature;BME280_humidity;BME280_pressure;Samples;Min_cycle;Max_cycle;Signal;HPM_P1;HPM_P2
2021/08/02 00:01:42;;;;;;;;;;;;;;;;;;10333104;28;20040;-82
2021/08/02 00:06:50;;;;;;;1.75;1.55;;;;;;;;;;10336674;28;19960;-82
2021/08/02 00:11:56;;;;;;;2.20;1.42;;;;;;;;;;10339078;28;20081;-82
2021/08/02 00:16:57;;;;;;;1.55;1.30;;;;;;;;;;10338849;28;20038;-82
2021/08/02 00:21:58;;;;;;;1.17;1.08;;;;;;;;;;10338252;28;20027;-82
2021/08/02 00:26:59;;;;;;;2.47;1.20;;;;;;;;;;10338171;28;20080;-82
2021/08/02 00:32:01;;;;;;;1.30;1.20;;;;;;;;;;10339102;28;20420;-83
2021/08/02 00:37:10;;;;;;;1.17;1.08;;;;;;;;;;10338499;28;20042;-82
2021/08/02 00:42:32;;;;;;;1.88;1.20;;;;;;;;;;10336797;28;20050;-82
2021/08/02 00:47:37;;;;;;;1.27;1.17;;;;;;;;;;10337970;28;20030;-82
2021/08/02 00:52:49;;;;;;;1.15;1.05;;;;;;;;;;10336855;28;20075;-82
2021/08/02 00:57:55;;;;;;;1.40;1.30;;;;;;;;;;10337410;28;20034;-82
2021/08/02 01:02:56;;;;;;;2.50;1.40;;;;;;;;;;10337761;28;20034;-82
2021/08/02 01:08:03;;;;;;;1.20;1.10;;;;;;;;;;10336451;28;20069;-82
2021/08/02 01:13:06;;;;;;;1.97;1.27;;;;;;;;;;10335599;28;20073;-82
2021/08/02 01:18:08;;;;;;;1.48;1.27;;;;;;;;;;10336331;28;20030;-83
2021/08/02 01:23:09;;;;;;;1.30;1.20;;;;;;;;;;10336058;28;20116;-82
2021/08/02 01:28:12;;;;;;;1.35;1.25;;;;;;;;;;10336092;28;20038;-82
2021/08/02 01:33:14;;;;;;;1.10;1.10;;;;;;;;;;10322790;28;20034;-83
2021/08/02 01:38:16;;;;;;;1.27;0.95;;;;;;;;;;10335519;28;20034;-83
2021/08/02 01:43:16;;;;;;;1.58;0.95;;;;;;;;;;10336205;28;20456;-82
2021/08/02 01:48:26;;;;;;;1.17;0.97;;;;;;;;;;10334957;28;20109;-82
2021/08/02 01:53:44;;;;;;;0.80;0.77;;;;;;;;;;10335759;28;20065;-82
2021/08/02 01:59:10;;;;;;;1.35;1.00;;;;;;;;;;10335304;28;20038;-82
2021/08/02 02:04:11;;;;;;;1.30;1.20;;;;;;;;;;10326396;28;20050;-82
2021/08/02 02:09:14;;;;;;;1.33;1.10;;;;;;;;;;10333937;28;20538;-82
2021/08/02 02:14:15;;;;;;;1.20;1.10;;;;;;;;;;10334780;28;20037;-82
2021/08/02 02:19:19;;;;;;;1.35;1.15;;;;;;;;;;10332745;28;20053;-82
2021/08/02 02:24:20;;;;;;;1.48;1.10;;;;;;;;;;10334540;28;20029;-82
2021/08/02 02:29:21;;;;;;;1.42;1.10;;;;;;;;;;10326024;28;20038;-82
2021/08/02 02:34:22;;;;;;;2.25;1.35;;;;;;;;;;10333111;28;20026;-82
2021/08/02 02:39:24;;;;;;;2.15;1.08;;;;;;;;;;10334370;28;20452;-82
2021/08/02 02:44:25;;;;;;;1.10;1.00;;;;;;;;;;10332474;28;20057;-82
2021/08/02 02:49:27;;;;;;;1.95;0.95;;;;;;;;;;10333054;28;20041;-82
2021/08/02 02:54:28;;;;;;;1.30;1.10;;;;;;;;;;10331939;28;20114;-82
2021/08/02 02:59:29;;;;;;;0.95;0.90;;;;;;;;;;10333469;28;20040;-82
2021/08/02 03:04:32;;;;;;;1.20;1.10;;;;;;;;;;10334281;28;20452;-85
2021/08/02 03:09:35;;;;;;;1.23;1.13;;;;;;;;;;10331993;28;20937;-81
2021/08/02 03:14:37;;;;;;;1.20;1.10;;;;;;;;;;10332047;28;20034;-82
2021/08/02 03:19:38;;;;;;;1.20;0.93;;;;;;;;;;10331686;28;20488;-82
2021/08/02 03:24:46;;;;;;;1.33;1.10;;;;;;;;;;10333251;28;20457;-82
2021/08/02 03:29:46;;;;;;;;;;;;;;;;;;10348942;28;20445;-82
2021/08/02 03:34:53;;;;;;;2.13;0.98;;;;;;;;;;10332766;28;19921;-82
2021/08/02 03:39:57;;;;;;;0.95;0.85;;;;;;;;;;10334556;28;20088;-82
2021/08/02 03:44:57;;;;;;;1.10;0.90;;;;;;;;;;10339911;28;20034;-82
2021/08/02 03:49:57;;;;;;;1.07;0.97;;;;;;;;;;10338483;28;20034;-82
2021/08/02 03:54:58;;;;;;;2.20;1.10;;;;;;;;;;10339394;28;20460;-82
2021/08/02 03:59:58;;;;;;;1.75;1.00;;;;;;;;;;10340294;28;20491;-82
2021/08/02 04:04:59;;;;;;;2.10;1.20;;;;;;;;;;10340195;28;20093;-82
2021/08/02 04:09:59;;;;;;;2.88;1.25;;;;;;;;;;10360332;23;20076;-89
2021/08/02 04:15:00;;;;;;;1.63;0.93;;;;;;;;;;10309267;28;20034;-89
2021/08/02 04:20:00;;;;;;;1.77;1.00;;;;;;;;;;10334975;28;20038;-89
2021/08/02 04:25:01;;;;;;;1.33;1.02;;;;;;;;;;10322593;28;20026;-89
2021/08/02 04:30:01;;;;;;;1.37;1.00;;;;;;;;;;10334357;28;20045;-89
2021/08/02 04:35:02;;;;;;;1.00;1.00;;;;;;;;;;10322100;28;20456;-88
2021/08/02 04:40:05;;;;;;;0.95;0.82;;;;;;;;;;10298994;28;20065;-89
2021/08/02 04:45:06;;;;;;;1.27;1.10;;;;;;;;;;10319214;28;20022;-89
2021/08/02 04:50:07;;;;;;;1.67;0.90;;;;;;;;;;10341917;28;20038;-89
2021/08/02 04:55:08;;;;;;;1.80;1.17;;;;;;;;;;10337549;28;20043;-89
2021/08/02 05:00:09;;;;;;;0.90;0.90;;;;;;;;;;10321059;28;20030;-89
2021/08/02 05:05:10;;;;;;;0.93;0.80;;;;;;;;;;10321561;28;20392;-89
2021/08/02 05:10:11;;;;;;;0.80;0.80;;;;;;;;;;10320000;28;20054;-90
2021/08/02 05:15:12;;;;;;;0.80;0.80;;;;;;;;;;10327048;28;20041;-90
2021/08/02 05:20:13;;;;;;;1.10;0.70;;;;;;;;;;10353535;28;20473;-89
2021/08/02 05:25:13;;;;;;;4.60;1.30;;;;;;;;;;10336132;28;20038;-91
2021/08/02 05:30:15;;;;;;;2.20;1.05;;;;;;;;;;10320411;28;20089;-91
2021/08/02 05:35:16;;;;;;;1.10;0.82;;;;;;;;;;10336680;28;20026;-91
2021/08/02 05:40:19;;;;;;;4.95;1.02;;;;;;;;;;10336026;28;20034;-92
2021/08/02 05:45:20;;;;;;;4.38;0.80;;;;;;;;;;10320546;28;20065;-92
2021/08/02 05:50:23;;;;;;;3.08;0.80;;;;;;;;;;10324043;28;20068;-92
2021/08/02 05:55:27;;;;;;;9.75;0.90;;;;;;;;;;10324239;28;20520;-92
2021/08/02 06:00:27;;;;;;;13.13;1.50;;;;;;;;;;10324526;28;20042;-91
2021/08/02 06:05:28;;;;;;;4.68;1.30;;;;;;;;;;10342006;28;20350;-89
2021/08/02 06:10:37;;;;;;;13.98;1.75;;;;;;;;;;10317422;28;20413;-92
2021/08/02 06:15:38;;;;;;;5.93;1.08;;;;;;;;;;10334831;28;20037;-93
2021/08/02 06:20:51;;;;;;;5.22;1.27;;;;;;;;;;10348301;28;20042;-94
2021/08/02 06:25:52;;;;;;;9.15;1.98;;;;;;;;;;10319254;28;20411;-91
2021/08/02 06:30:55;;;;;;;5.53;1.20;;;;;;;;;;10333802;28;20022;-92
2021/08/02 06:35:55;;;;;;;3.72;1.30;;;;;;;;;;10317934;28;20534;-90
2021/08/02 06:40:56;;;;;;;2.50;1.13;;;;;;;;;;10333502;28;20115;-91
2021/08/02 06:45:56;;;;;;;2.90;1.10;;;;;;;;;;10317445;28;20033;-91
2021/08/02 06:50:57;;;;;;;2.25;1.30;;;;;;;;;;10333769;28;20989;-90
2021/08/02 06:55:57;;;;;;;4.30;1.00;;;;;;;;;;10317848;28;20042;-91
2021/08/02 07:00:58;;;;;;;1.08;0.95;;;;;;;;;;10317650;28;20088;-92
2021/08/02 07:05:58;;;;;;;4.43;1.40;;;;;;;;;;10317000;28;20129;-91
2021/08/02 07:10:58;;;;;;;1.83;1.10;;;;;;;;;;10316995;28;20472;-92
2021/08/02 07:16:00;;;;;;;3.03;0.90;;;;;;;;;;10338919;28;20468;-92
2021/08/02 07:21:01;;;;;;;5.13;1.15;;;;;;;;;;10341557;28;20460;-92
2021/08/02 07:26:01;;;;;;;1.25;0.90;;;;;;;;;;10324599;28;20033;-92
2021/08/02 07:31:02;;;;;;;1.88;0.90;;;;;;;;;;10325195;28;20027;-92
2021/08/02 07:36:02;;;;;;;2.45;1.02;;;;;;;;;;10340915;28;20168;-92
2021/08/02 07:41:03;;;;;;;1.55;0.95;;;;;;;;;;10318600;28;20106;-90
2021/08/02 07:46:03;;;;;;;2.15;0.88;;;;;;;;;;10326305;28;20063;-91
2021/08/02 07:51:04;;;;;;;1.90;1.08;;;;;;;;;;10326519;28;20045;-92
2021/08/02 07:56:04;;;;;;;3.85;1.02;;;;;;;;;;10323823;28;20479;-91
2021/08/02 08:01:05;;;;;;;4.72;1.10;;;;;;;;;;10324050;28;20501;-91
2021/08/02 08:06:05;;;;;;;5.45;0.98;;;;;;;;;;10310285;28;20060;-91
2021/08/02 08:11:09;;;;;;;2.13;1.02;;;;;;;;;;10323122;28;20046;-91
2021/08/02 08:16:09;;;;;;;1.35;0.90;;;;;;;;;;10323495;28;20472;-91
2021/08/02 08:21:10;;;;;;;0.80;0.80;;;;;;;;;;10322936;28;20030;-91
2021/08/02 08:26:10;;;;;;;2.65;1.45;;;;;;;;;;10337777;28;20068;-91
2021/08/02 08:31:11;;;;;;;1.65;0.80;;;;;;;;;;10324898;28;20030;-91
2021/08/02 08:36:14;;;;;;;1.33;1.00;;;;;;;;;;10329895;28;20022;-90
2021/08/02 08:41:20;;;;;;;0.98;0.93;;;;;;;;;;10324925;28;20388;-91
2021/08/02 08:46:21;;;;;;;2.70;0.80;;;;;;;;;;10338716;28;20032;-91
2021/08/02 08:51:23;;;;;;;2.38;1.02;;;;;;;;;;10322729;28;20022;-91
2021/08/02 08:56:24;;;;;;;1.40;0.90;;;;;;;;;;10337816;28;20034;-91
2021/08/02 09:01:28;;;;;;;3.33;1.20;;;;;;;;;;10321640;28;20472;-91
2021/08/02 09:06:29;;;;;;;2.85;1.02;;;;;;;;;;10337084;28;20837;-91
2021/08/02 09:11:30;;;;;;;4.57;1.45;;;;;;;;;;10320778;28;20137;-90
2021/08/02 09:16:31;;;;;;;3.00;1.20;;;;;;;;;;10320457;28;20069;-88
2021/08/02 09:21:46;;;;;;;3.73;1.60;;;;;;;;;;10305910;28;20033;-89
2021/08/02 09:26:49;;;;;;;1.58;1.13;;;;;;;;;;10351885;28;20460;-88
2021/08/02 09:31:49;;;;;;;4.88;1.33;;;;;;;;;;10321801;28;20030;-87
2021/08/02 09:36:59;;;;;;;3.33;1.50;;;;;;;;;;10310694;28;20049;-87
2021/08/02 09:42:05;;;;;;;3.78;0.90;;;;;;;;;;10306706;28;20030;-88
2021/08/02 09:47:07;;;;;;;2.25;1.08;;;;;;;;;;10333874;28;20054;-88
2021/08/02 09:52:08;;;;;;;2.08;1.30;;;;;;;;;;10318606;28;20062;-87
2021/08/02 09:57:08;;;;;;;3.13;1.40;;;;;;;;;;10334455;28;20066;-88
2021/08/02 10:02:10;;;;;;;3.05;1.20;;;;;;;;;;10351005;28;20109;-88
2021/08/02 10:07:13;;;;;;;1.77;1.30;;;;;;;;;;10334632;28;20050;-88
2021/08/02 10:12:13;;;;;;;3.15;1.30;;;;;;;;;;10320745;28;20077;-88
2021/08/02 10:17:14;;;;;;;2.70;1.30;;;;;;;;;;10334241;28;20092;-89
2021/08/02 10:22:15;;;;;;;4.22;1.25;;;;;;;;;;10319991;28;20026;-88
2021/08/02 10:27:26;;;;;;;1.58;1.40;;;;;;;;;;10333099;28;20468;-88
2021/08/02 10:32:27;;;;;;;3.35;1.38;;;;;;;;;;10303135;28;20030;-89
2021/08/02 10:37:30;;;;;;;1.92;1.40;;;;;;;;;;10308764;28;20034;-89
2021/08/02 10:42:30;;;;;;;3.45;1.33;;;;;;;;;;10318338;28;20030;-90
2021/08/02 10:47:41;;;;;;;1.50;1.30;;;;;;;;;;10334455;28;20045;-90
2021/08/02 10:52:42;;;;;;;4.40;1.30;;;;;;;;;;10317690;28;20034;-91
2021/08/02 10:57:42;;;;;;;2.35;1.52;;;;;;;;;;10307696;28;20487;-90
2021/08/02 11:02:48;;;;;;;1.88;0.90;;;;;;;;;;10317783;28;20050;-91
2021/08/02 11:07:49;;;;;;;2.03;1.40;;;;;;;;;;10304473;28;20061;-91
2021/08/02 11:12:49;;;;;;;2.08;1.50;;;;;;;;;;10319859;28;20039;-91
2021/08/02 11:17:51;;;;;;;1.67;1.53;;;;;;;;;;10305033;28;20042;-91
2021/08/02 11:22:57;;;;;;;4.38;1.90;;;;;;;;;;10304253;28;20547;-90
2021/08/02 11:28:00;;;;;;;1.88;1.40;;;;;;;;;;10304202;28;20058;-89
2021/08/02 11:33:00;;;;;;;2.05;1.50;;;;;;;;;;10311799;28;20472;-88
2021/08/02 11:38:00;;;;;;;1.50;1.40;;;;;;;;;;10317132;28;20074;-90
2021/08/02 11:43:02;;;;;;;4.47;1.50;;;;;;;;;;10316042;28;20034;-90
2021/08/02 11:48:08;;;;;;;4.53;1.67;;;;;;;;;;10310491;28;20546;-90
2021/08/02 11:53:09;;;;;;;2.88;1.40;;;;;;;;;;10318721;28;20041;-90
2021/08/02 11:58:09;;;;;;;1.73;1.58;;;;;;;;;;10316092;28;20386;-92
2021/08/02 12:03:13;;;;;;;2.20;1.40;;;;;;;;;;10324026;28;20121;-91
2021/08/02 12:08:18;;;;;;;1.77;1.35;;;;;;;;;;10324057;28;20050;-91
2021/08/02 12:13:18;;;;;;;3.20;1.40;;;;;;;;;;10339588;28;20034;-90
2021/08/02 12:18:27;;;;;;;1.53;1.43;;;;;;;;;;10342454;28;20038;-90
2021/08/02 12:23:28;;;;;;;5.18;1.60;;;;;;;;;;10319203;28;20088;-90
2021/08/02 12:28:39;;;;;;;1.47;1.23;;;;;;;;;;10350256;28;20049;-91
2021/08/02 12:33:39;;;;;;;2.67;1.30;;;;;;;;;;10322361;28;20065;-91
2021/08/02 12:38:51;;;;;;;1.93;1.40;;;;;;;;;;10309061;28;20088;-91
2021/08/02 12:43:53;;;;;;;1.98;1.30;;;;;;;;;;10320260;28;20068;-88
2021/08/02 12:48:54;;;;;;;4.53;1.58;;;;;;;;;;10307688;28;20034;-88
2021/08/02 12:53:54;;;;;;;2.20;1.40;;;;;;;;;;10336848;28;20045;-90
2021/08/02 12:58:55;;;;;;;5.07;1.30;;;;;;;;;;10324023;28;20034;-87
2021/08/02 13:03:56;;;;;;;1.53;1.20;;;;;;;;;;10318876;28;20045;-89
2021/08/02 13:08:56;;;;;;;4.70;1.50;;;;;;;;;;10322665;28;20460;-89
2021/08/02 13:13:56;;;;;;;4.23;1.50;;;;;;;;;;10336401;28;20034;-89
2021/08/02 13:18:57;;;;;;;4.90;1.90;;;;;;;;;;10316461;28;20038;-89
2021/08/02 13:29:16;;;;;;;2.22;1.52;;;;;;;;;;10336966;28;20480;-89
2021/08/02 13:34:17;;;;;;;2.03;1.50;;;;;;;;;;10340772;28;20129;-87
2021/08/02 13:39:17;;;;;;;2.80;1.20;;;;;;;;;;10334902;28;20083;-87
2021/08/02 13:44:18;;;;;;;3.63;1.80;;;;;;;;;;10334435;28;20537;-87
2021/08/02 13:49:20;;;;;;;1.98;1.50;;;;;;;;;;10334377;28;20030;-86
2021/08/02 13:54:23;;;;;;;2.25;1.73;;;;;;;;;;10350286;28;20468;-86
2021/08/02 13:59:24;;;;;;;5.78;1.70;;;;;;;;;;10334752;28;20572;-86
2021/08/02 14:04:24;;;;;;;3.17;1.90;;;;;;;;;;10337975;28;20245;-85
2021/08/02 14:09:24;;;;;;;1.50;1.30;;;;;;;;;;10345047;28;20056;-86
2021/08/02 14:14:29;;;;;;;3.03;1.65;;;;;;;;;;10333217;28;20022;-87
2021/08/02 14:19:30;;;;;;;5.72;1.98;;;;;;;;;;10335841;28;20026;-86
2021/08/02 14:24:31;;;;;;;2.33;1.60;;;;;;;;;;10333348;28;20463;-86
2021/08/02 14:29:31;;;;;;;3.72;1.80;;;;;;;;;;10333013;28;20023;-86
2021/08/02 14:34:32;;;;;;;2.33;1.50;;;;;;;;;;10325459;28;20464;-88
2021/08/02 14:39:42;;;;;;;2.83;1.47;;;;;;;;;;10340694;28;20121;-87
2021/08/02 14:44:43;;;;;;;3.08;1.67;;;;;;;;;;10333522;28;20452;-88
2021/08/02 14:49:48;;;;;;;3.33;1.33;;;;;;;;;;10333292;28;20532;-88
2021/08/02 14:54:48;;;;;;;2.47;1.67;;;;;;;;;;10332455;28;20023;-88
2021/08/02 14:59:49;;;;;;;4.85;1.90;;;;;;;;;;10332796;28;20464;-88
2021/08/02 15:04:52;;;;;;;2.70;1.58;;;;;;;;;;10317903;28;20042;-88
2021/08/02 15:09:53;;;;;;;4.38;2.08;;;;;;;;;;10315764;28;20133;-89
2021/08/02 15:14:53;;;;;;;10.37;2.47;;;;;;;;;;10315778;28;20459;-88
2021/08/02 15:20:01;;;;;;;5.50;1.80;;;;;;;;;;10337709;28;20030;-87
2021/08/02 15:25:02;;;;;;;;;;;;;;;;;;10336436;28;20033;-88
2021/08/02 15:30:06;;;;;;;4.50;1.52;;;;;;;;;;10339938;28;19913;-87
2021/08/02 15:35:07;;;;;;;4.57;1.50;;;;;;;;;;10339912;28;20030;-88
2021/08/02 15:40:11;;;;;;;4.82;1.40;;;;;;;;;;10337535;28;20026;-88
2021/08/02 15:45:17;;;;;;;8.05;1.60;;;;;;;;;;10341539;28;20038;-88
2021/08/02 15:50:22;;;;;;;5.13;1.40;;;;;;;;;;10322452;28;20093;-88
2021/08/02 15:55:25;;;;;;;4.45;1.55;;;;;;;;;;10322997;28;20121;-88
2021/08/02 16:00:27;;;;;;;11.57;1.60;;;;;;;;;;10322526;28;20061;-88
2021/08/02 16:05:32;;;;;;;4.05;1.08;;;;;;;;;;10322188;28;20129;-89
2021/08/02 16:10:37;;;;;;;4.50;1.42;;;;;;;;;;10428201;23;20084;-82
2021/08/02 16:15:38;;;;;;;7.25;1.33;;;;;;;;;;10461656;28;20029;-83
2021/08/02 16:20:38;;;;;;;3.83;2.00;;;;;;;;;;10460275;28;20025;-82
2021/08/02 16:25:39;;;;;;;2.63;1.30;;;;;;;;;;10461912;28;20036;-82
2021/08/02 16:30:39;;;;;;;4.77;1.50;;;;;;;;;;10456321;28;20025;-83
2021/08/02 16:35:39;;;;;;;3.42;1.38;;;;;;;;;;10449345;28;20503;-83
2021/08/02 16:40:40;;;;;;;4.60;1.43;;;;;;;;;;10461402;28;20104;-83
2021/08/02 16:45:40;;;;;;;4.50;1.40;;;;;;;;;;10460820;28;20033;-82
2021/08/02 16:50:41;;;;;;;2.47;1.42;;;;;;;;;;10458927;28;20021;-83
2021/08/02 16:55:41;;;;;;;2.03;1.40;;;;;;;;;;10460969;28;20083;-83
2021/08/02 17:00:42;;;;;;;15.70;1.83;;;;;;;;;;10451859;28;20967;-83
2021/08/02 17:05:42;;;;;;;3.13;1.40;;;;;;;;;;10456336;28;20465;-83
2021/08/02 17:10:42;;;;;;;3.30;1.30;;;;;;;;;;10451001;28;20471;-82
2021/08/02 17:15:43;;;;;;;4.53;1.37;;;;;;;;;;10455389;28;20029;-82
2021/08/02 17:20:43;;;;;;;2.43;1.37;;;;;;;;;;10458760;28;20442;-82
2021/08/02 17:25:45;;;;;;;2.27;1.20;;;;;;;;;;10459220;28;20863;-82
2021/08/02 17:30:45;;;;;;;2.92;1.27;;;;;;;;;;10457188;28;20052;-83
2021/08/02 17:35:46;;;;;;;3.97;1.30;;;;;;;;;;10458532;28;20060;-83
2021/08/02 17:40:47;;;;;;;3.33;1.30;;;;;;;;;;10450849;28;20123;-82
2021/08/02 17:45:47;;;;;;;1.80;1.10;;;;;;;;;;10453268;28;20033;-86
2021/08/02 17:50:47;;;;;;;2.17;1.47;;;;;;;;;;10444573;28;20104;-82
2021/08/02 17:55:48;;;;;;;2.70;1.55;;;;;;;;;;10457709;28;20025;-82
2021/08/02 18:00:48;;;;;;;2.80;1.50;;;;;;;;;;10449443;28;20029;-82
2021/08/02 18:05:50;;;;;;;7.25;1.52;;;;;;;;;;10442115;28;20065;-82
2021/08/02 18:10:50;;;;;;;1.80;1.20;;;;;;;;;;10454018;28;20573;-82
2021/08/02 18:15:50;;;;;;;2.10;1.40;;;;;;;;;;10454262;28;20112;-82
2021/08/02 18:20:51;;;;;;;2.10;1.40;;;;;;;;;;10452629;28;20479;-82
2021/08/02 18:25:51;;;;;;;5.87;1.40;;;;;;;;;;10443389;28;20033;-83
2021/08/02 18:30:52;;;;;;;2.77;1.40;;;;;;;;;;10444778;28;20533;-82
2021/08/02 18:35:52;;;;;;;3.83;1.30;;;;;;;;;;10453723;28;20036;-82
2021/08/02 18:40:55;;;;;;;2.23;1.27;;;;;;;;;;10451321;28;20079;-82
2021/08/02 18:45:55;;;;;;;2.00;1.25;;;;;;;;;;10446381;28;20033;-83
2021/08/02 18:50:55;;;;;;;1.77;1.35;;;;;;;;;;10449704;28;20037;-82
2021/08/02 18:55:56;;;;;;;1.63;1.20;;;;;;;;;;10450880;28;20405;-81
2021/08/02 19:00:56;;;;;;;9.27;1.80;;;;;;;;;;10442070;28;20052;-82
2021/08/02 19:05:56;;;;;;;1.50;1.17;;;;;;;;;;10431843;28;20067;-82
2021/08/02 19:11:01;;;;;;;1.50;1.10;;;;;;;;;;10461643;28;20052;-81
2021/08/02 19:16:08;;;;;;;3.70;0.90;;;;;;;;;;10464194;28;20028;-81
2021/08/02 19:21:11;;;;;;;5.23;1.00;;;;;;;;;;10463023;28;20068;-79
2021/08/02 19:26:11;;;;;;;1.58;1.30;;;;;;;;;;10458797;28;20479;-79
2021/08/02 19:31:12;;;;;;;1.27;1.00;;;;;;;;;;10461591;28;20033;-80
2021/08/02 19:36:13;;;;;;;1.10;0.80;;;;;;;;;;10464294;28;20059;-80
2021/08/02 19:41:36;;;;;;;1.67;0.75;;;;;;;;;;10458341;28;20043;-80
2021/08/02 19:46:41;;;;;;;1.80;1.00;;;;;;;;;;10463819;28;20480;-81
2021/08/02 19:51:44;;;;;;;0.98;0.82;;;;;;;;;;10462848;28;20077;-80
2021/08/02 19:56:45;;;;;;;0.90;0.90;;;;;;;;;;10448620;28;20032;-81
2021/08/02 20:01:46;;;;;;;1.58;0.80;;;;;;;;;;10455016;28;20037;-82
2021/08/02 20:06:49;;;;;;;3.13;0.90;;;;;;;;;;10462753;28;20104;-79
2021/08/02 20:11:49;;;;;;;4.75;1.30;;;;;;;;;;10457802;28;20348;-78
2021/08/02 20:16:51;;;;;;;2.63;1.10;;;;;;;;;;10460641;28;20120;-79
2021/08/02 20:21:57;;;;;;;14.63;2.67;;;;;;;;;;10450143;28;20036;-80
2021/08/02 20:27:02;;;;;;;8.45;1.55;;;;;;;;;;10461123;28;20036;-79
2021/08/02 20:32:04;;;;;;;7.93;1.33;;;;;;;;;;10451801;28;20044;-80
2021/08/02 20:37:10;;;;;;;4.30;1.55;;;;;;;;;;10461216;28;20055;-80
2021/08/02 20:42:10;;;;;;;7.05;1.30;;;;;;;;;;10458422;28;20037;-80
2021/08/02 20:47:15;;;;;;;4.83;1.57;;;;;;;;;;10459470;28;20036;-80
2021/08/02 20:52:19;;;;;;;3.13;1.17;;;;;;;;;;10459514;28;20100;-80
2021/08/02 20:57:20;;;;;;;1.45;1.20;;;;;;;;;;10449459;28;20052;-79
2021/08/02 21:02:23;;;;;;;2.45;1.33;;;;;;;;;;10449835;28;20039;-80
2021/08/02 21:07:30;;;;;;;1.67;1.13;;;;;;;;;;10460241;28;20057;-80
2021/08/02 21:12:44;;;;;;;1.40;1.10;;;;;;;;;;10453935;28;20131;-80
2021/08/02 21:17:46;;;;;;;2.85;1.45;;;;;;;;;;10449596;28;20030;-80
2021/08/02 21:22:49;;;;;;;3.17;1.08;;;;;;;;;;10433376;28;20033;-79
2021/08/02 21:28:00;;;;;;;3.95;1.38;;;;;;;;;;10450832;28;20041;-80
2021/08/02 21:33:01;;;;;;;2.88;1.20;;;;;;;;;;10453553;28;20091;-79
2021/08/02 21:38:01;;;;;;;3.50;1.20;;;;;;;;;;10446899;28;20039;-78
2021/08/02 21:43:02;;;;;;;4.15;1.20;;;;;;;;;;10447949;28;20839;-80
2021/08/02 21:48:02;;;;;;;3.60;1.10;;;;;;;;;;10439765;28;20116;-78
2021/08/02 21:53:05;;;;;;;1.25;0.80;;;;;;;;;;10434289;28;20029;-79
2021/08/02 21:58:05;;;;;;;3.33;1.20;;;;;;;;;;10438732;28;20039;-77
2021/08/02 22:03:06;;;;;;;4.83;1.33;;;;;;;;;;10449322;28;20025;-78
2021/08/02 22:08:07;;;;;;;1.45;0.90;;;;;;;;;;10435712;28;20056;-78
2021/08/02 22:13:08;;;;;;;3.80;1.33;;;;;;;;;;10456050;28;20061;-78
2021/08/02 22:18:08;;;;;;;6.38;1.40;;;;;;;;;;10449670;28;20064;-78
2021/08/02 22:23:09;;;;;;;4.85;1.38;;;;;;;;;;10455211;28;20478;-78
2021/08/02 22:28:09;;;;;;;3.80;1.10;;;;;;;;;;10442631;28;20043;-78
2021/08/02 22:33:10;;;;;;;4.65;1.35;;;;;;;;;;10455824;28;20036;-78
2021/08/02 22:38:10;;;;;;;5.03;1.50;;;;;;;;;;10449213;28;20086;-78
2021/08/02 22:43:11;;;;;;;2.65;1.30;;;;;;;;;;10456916;28;20955;-78
2021/08/02 22:48:11;;;;;;;3.17;1.05;;;;;;;;;;10456733;28;20462;-78
2021/08/02 22:53:13;;;;;;;2.45;1.10;;;;;;;;;;10460706;28;20036;-80
2021/08/02 22:58:20;;;;;;;7.97;1.13;;;;;;;;;;10453534;28;20036;-80
2021/08/02 23:03:34;;;;;;;2.53;1.17;;;;;;;;;;10454900;28;20039;-80
2021/08/02 23:08:39;;;;;;;1.63;1.20;;;;;;;;;;10447343;28;20044;-79
2021/08/02 23:13:40;;;;;;;1.40;1.10;;;;;;;;;;10456114;28;20029;-79
2021/08/02 23:18:41;;;;;;;1.98;0.80;;;;;;;;;;10449279;28;20044;-79
2021/08/02 23:23:42;;;;;;;5.20;1.10;;;;;;;;;;10455997;28;20028;-80
2021/08/02 23:28:44;;;;;;;2.67;1.13;;;;;;;;;;10443619;28;20033;-79
2021/08/02 23:33:45;;;;;;;2.88;1.20;;;;;;;;;;10454481;28;20059;-79
2021/08/02 23:38:48;;;;;;;3.15;1.30;;;;;;;;;;10442924;28;20037;-79
2021/08/02 23:43:49;;;;;;;2.90;1.20;;;;;;;;;;10453869;28;20072;-79
2021/08/02 23:48:57;;;;;;;1.85;1.13;;;;;;;;;;10454779;28;20037;-79
2021/08/02 23:53:58;;;;;;;1.75;1.17;;;;;;;;;;10455710;28;20036;-79
2021/08/02 23:58:59;;;;;;;1.02;0.90;;;;;;;;;;10461089;28;20422;-81
